Geervliet — PCLI — position and weather

sailwx.info

Track history (hours):
 
Tides and Currents Weather Stations Pressure Air Temp Water Temp Dewpoint Dewpoint Depression Visibility Wind Speed Wind Dir Waves Ship Positions

Geervliet

Last reported at 2014-Aug-21 16:28 UTC. Time now 2014-Aug-28 23:20 UTC.
Position N 42°47' E 038°16'.

Length 86 m; draft 3.7 m.

Type: Cargo ship. MMSI: 246803000.

Date/timePositionNaut miles runAvg speedWind from/ knotsBaromVisibWave heightAir tempDewpointWater temp
2014-Aug-21 16:28N 42°47' E 038°16'1211.0
2014-Aug-21 15:22N 42°50' E 038°00'  
2014-Aug-16 20:33N 46°19' E 030°39'0 0.0
2014-Aug-16 19:21N 46°19' E 030°39'0 0.0
2014-Aug-16 18:33N 46°19' E 030°39'58 4.5
2014-Aug-16 05:33N 45°22' E 030°48'287 9.8
2014-Aug-15 00:17N 40°47' E 028°57'1 0.8
2014-Aug-14 23:33N 40°47' E 028°57'1 0.8
2014-Aug-14 22:33N 40°48' E 028°57'0 0.3
2014-Aug-14 21:30N 40°48' E 028°58'1010.5
2014-Aug-14 20:33N 40°47' E 029°11'1010.3
2014-Aug-14 19:33N 40°45' E 029°24'12 9.5
2014-Aug-14 18:17N 40°44' E 029°40'2 0.3
2014-Aug-14 09:33N 40°44' E 029°43'10 8.7
2014-Aug-14 08:24N 40°45' E 029°30'8 8.2
2014-Aug-14 07:23N 40°44' E 029°19'910.8
2014-Aug-14 06:33N 40°43' E 029°07'3 3.4
2014-Aug-14 05:33N 40°43' E 029°03'6 5.5
2014-Aug-14 04:32N 40°43' E 028°55'8 8.3
2014-Aug-14 03:32N 40°44' E 028°44'9 8.3
2014-Aug-14 02:27N 40°44' E 028°33'128 8.0
2014-Aug-13 10:26N 39°55' E 025°57'41 5.2
2014-Aug-13 02:33N 39°19' E 025°33'8 8.3
2014-Aug-13 01:33N 39°11' E 025°28'18 8.2
2014-Aug-12 23:23N 38°56' E 025°17'7 8.2
2014-Aug-12 22:33N 38°50' E 025°13'63 8.4
2014-Aug-12 15:06N 37°55' E 024°35'7 9.3
2014-Aug-12 14:19N 37°50' E 024°28'7 9.0
2014-Aug-12 13:33N 37°45' E 024°22'19 9.2
2014-Aug-12 11:31N 37°30' E 024°07'10 8.7
2014-Aug-12 10:24N 37°22' E 024°01'11 9.2
2014-Aug-12 09:15N 37°13' E 023°54'7 9.4
2014-Aug-12 08:33N 37°08' E 023°49'9 9.0
2014-Aug-12 07:33N 36°60' E 023°44'9 8.9
2014-Aug-12 06:33N 36°53' E 023°37'9 9.1
2014-Aug-12 05:33N 36°45' E 023°31'10 9.4
2014-Aug-12 04:30N 36°36' E 023°25'9 9.6
2014-Aug-12 03:33N 36°29' E 023°19'  
Track history (hours):
 
Tides and Currents Weather Stations Pressure Air Temp Water Temp Dewpoint Dewpoint Depression Visibility Wind Speed Wind Dir Waves Ship Positions

Geervliet

Last reported at 2014-Aug-21 16:28 UTC. Time now 2014-Aug-28 23:20 UTC.
Position N 42°47' E 038°16'.

Length 86 m; draft 3.7 m.

Type: Cargo ship. MMSI: 246803000.

Date/timePositionNaut miles runAvg speedWind from/ knotsBaromVisibWave heightAir tempDewpointWater temp
2014-Aug-21 16:28N 42°47' E 038°16'1211.0
2014-Aug-21 15:22N 42°50' E 038°00'  
2014-Aug-16 20:33N 46°19' E 030°39'0 0.0
2014-Aug-16 19:21N 46°19' E 030°39'0 0.0
2014-Aug-16 18:33N 46°19' E 030°39'58 4.5
2014-Aug-16 05:33N 45°22' E 030°48'287 9.8
2014-Aug-15 00:17N 40°47' E 028°57'1 0.8
2014-Aug-14 23:33N 40°47' E 028°57'1 0.8
2014-Aug-14 22:33N 40°48' E 028°57'0 0.3
2014-Aug-14 21:30N 40°48' E 028°58'1010.5
2014-Aug-14 20:33N 40°47' E 029°11'1010.3
2014-Aug-14 19:33N 40°45' E 029°24'12 9.5
2014-Aug-14 18:17N 40°44' E 029°40'2 0.3
2014-Aug-14 09:33N 40°44' E 029°43'10 8.7
2014-Aug-14 08:24N 40°45' E 029°30'8 8.2
2014-Aug-14 07:23N 40°44' E 029°19'910.8
2014-Aug-14 06:33N 40°43' E 029°07'3 3.4
2014-Aug-14 05:33N 40°43' E 029°03'6 5.5
2014-Aug-14 04:32N 40°43' E 028°55'8 8.3
2014-Aug-14 03:32N 40°44' E 028°44'9 8.3
2014-Aug-14 02:27N 40°44' E 028°33'128 8.0
2014-Aug-13 10:26N 39°55' E 025°57'41 5.2
2014-Aug-13 02:33N 39°19' E 025°33'8 8.3
2014-Aug-13 01:33N 39°11' E 025°28'18 8.2
2014-Aug-12 23:23N 38°56' E 025°17'7 8.2
2014-Aug-12 22:33N 38°50' E 025°13'63 8.4
2014-Aug-12 15:06N 37°55' E 024°35'7 9.3
2014-Aug-12 14:19N 37°50' E 024°28'7 9.0
2014-Aug-12 13:33N 37°45' E 024°22'19 9.2
2014-Aug-12 11:31N 37°30' E 024°07'10 8.7
2014-Aug-12 10:24N 37°22' E 024°01'11 9.2
2014-Aug-12 09:15N 37°13' E 023°54'7 9.4
2014-Aug-12 08:33N 37°08' E 023°49'9 9.0
2014-Aug-12 07:33N 36°60' E 023°44'9 8.9
2014-Aug-12 06:33N 36°53' E 023°37'9 9.1
2014-Aug-12 05:33N 36°45' E 023°31'10 9.4
2014-Aug-12 04:30N 36°36' E 023°25'9 9.6
2014-Aug-12 03:33N 36°29' E 023°19'  

Dump ship's entire track history